sensor_id;sensor_type;location;lat;lon;timestamp;P1;durP1;ratioP1;P2;durP2;ratioP2
15271;SDS011;7737;51.578;7.268;2023-02-28T00:00:06;7.20;;;4.80;;
15271;SDS011;7737;51.578;7.268;2023-02-28T00:02:35;6.30;;;4.70;;
15271;SDS011;7737;51.578;7.268;2023-02-28T00:05:02;6.03;;;4.80;;
15271;SDS011;7737;51.578;7.268;2023-02-28T00:07:28;8.13;;;4.80;;
15271;SDS011;7737;51.578;7.268;2023-02-28T00:09:55;6.27;;;4.70;;
15271;SDS011;7737;51.578;7.268;2023-02-28T00:12:22;8.07;;;4.70;;
15271;SDS011;7737;51.578;7.268;2023-02-28T00:14:49;6.67;;;4.80;;
15271;SDS011;7737;51.578;7.268;2023-02-28T00:17:16;6.27;;;4.00;;
15271;SDS011;7737;51.578;7.268;2023-02-28T00:19:45;5.77;;;4.30;;
15271;SDS011;7737;51.578;7.268;2023-02-28T00:22:12;5.80;;;4.10;;
15271;SDS011;7737;51.578;7.268;2023-02-28T00:24:39;5.83;;;4.10;;
15271;SDS011;7737;51.578;7.268;2023-02-28T00:27:05;5.30;;;4.00;;
15271;SDS011;7737;51.578;7.268;2023-02-28T00:29:31;6.10;;;3.87;;
15271;SDS011;7737;51.578;7.268;2023-02-28T00:31:59;6.40;;;3.70;;
15271;SDS011;7737;51.578;7.268;2023-02-28T00:34:26;6.37;;;4.00;;
15271;SDS011;7737;51.578;7.268;2023-02-28T00:36:52;6.93;;;4.00;;
15271;SDS011;7737;51.578;7.268;2023-02-28T00:39:19;4.60;;;3.53;;
15271;SDS011;7737;51.578;7.268;2023-02-28T00:41:46;6.20;;;3.93;;
15271;SDS011;7737;51.578;7.268;2023-02-28T00:44:12;5.33;;;3.90;;
15271;SDS011;7737;51.578;7.268;2023-02-28T00:46:39;6.17;;;4.20;;
15271;SDS011;7737;51.578;7.268;2023-02-28T00:49:07;7.03;;;4.07;;
15271;SDS011;7737;51.578;7.268;2023-02-28T00:51:33;6.20;;;3.60;;
15271;SDS011;7737;51.578;7.268;2023-02-28T00:54:00;4.83;;;4.00;;
15271;SDS011;7737;51.578;7.268;2023-02-28T00:56:26;5.47;;;3.53;;
15271;SDS011;7737;51.578;7.268;2023-02-28T00:58:53;4.93;;;3.53;;
15271;SDS011;7737;51.578;7.268;2023-02-28T01:01:19;6.37;;;3.80;;
15271;SDS011;7737;51.578;7.268;2023-02-28T01:03:45;5.63;;;3.60;;
15271;SDS011;7737;51.578;7.268;2023-02-28T01:06:13;5.07;;;3.73;;
15271;SDS011;7737;51.578;7.268;2023-02-28T01:08:40;6.53;;;3.90;;
15271;SDS011;7737;51.578;7.268;2023-02-28T01:11:07;6.60;;;4.37;;
15271;SDS011;7737;51.578;7.268;2023-02-28T01:13:34;6.27;;;3.97;;
15271;SDS011;7737;51.578;7.268;2023-02-28T01:16:01;5.50;;;3.80;;
15271;SDS011;7737;51.578;7.268;2023-02-28T01:18:27;7.00;;;3.83;;
15271;SDS011;7737;51.578;7.268;2023-02-28T01:20:54;6.83;;;3.80;;
15271;SDS011;7737;51.578;7.268;2023-02-28T01:23:22;6.17;;;3.53;;
15271;SDS011;7737;51.578;7.268;2023-02-28T01:25:49;6.67;;;3.20;;
15271;SDS011;7737;51.578;7.268;2023-02-28T01:28:15;5.57;;;3.63;;
15271;SDS011;7737;51.578;7.268;2023-02-28T01:30:42;6.10;;;3.30;;
15271;SDS011;7737;51.578;7.268;2023-02-28T01:33:09;4.73;;;3.27;;
15271;SDS011;7737;51.578;7.268;2023-02-28T01:35:35;4.33;;;3.47;;
15271;SDS011;7737;51.578;7.268;2023-02-28T01:38:02;6.10;;;3.50;;
15271;SDS011;7737;51.578;7.268;2023-02-28T01:40:30;3.93;;;3.30;;
15271;SDS011;7737;51.578;7.268;2023-02-28T01:42:56;4.73;;;3.30;;
15271;SDS011;7737;51.578;7.268;2023-02-28T01:45:23;6.43;;;3.77;;
15271;SDS011;7737;51.578;7.268;2023-02-28T01:47:54;4.93;;;3.20;;
15271;SDS011;7737;51.578;7.268;2023-02-28T01:50:25;4.37;;;3.30;;
15271;SDS011;7737;51.578;7.268;2023-02-28T01:52:54;4.70;;;3.63;;
15271;SDS011;7737;51.578;7.268;2023-02-28T01:55:23;5.03;;;3.40;;
15271;SDS011;7737;51.578;7.268;2023-02-28T01:57:55;4.20;;;3.20;;
15271;SDS011;7737;51.578;7.268;2023-02-28T02:00:25;4.37;;;3.20;;
15271;SDS011;7737;51.578;7.268;2023-02-28T02:02:53;5.77;;;3.40;;
15271;SDS011;7737;51.578;7.268;2023-02-28T02:05:23;5.53;;;3.60;;
15271;SDS011;7737;51.578;7.268;2023-02-28T02:07:52;5.60;;;3.67;;
15271;SDS011;7737;51.578;7.268;2023-02-28T02:10:21;4.63;;;3.50;;
15271;SDS011;7737;51.578;7.268;2023-02-28T02:13:00;5.10;;;3.37;;
15271;SDS011;7737;51.578;7.268;2023-02-28T02:15:35;5.13;;;3.40;;
15271;SDS011;7737;51.578;7.268;2023-02-28T02:18:08;4.80;;;3.47;;
15271;SDS011;7737;51.578;7.268;2023-02-28T02:20:46;3.93;;;3.50;;
15271;SDS011;7737;51.578;7.268;2023-02-28T02:23:33;5.30;;;3.20;;
15271;SDS011;7737;51.578;7.268;2023-02-28T02:29:35;5.57;;;3.23;;
15271;SDS011;7737;51.578;7.268;2023-02-28T02:35:13;6.17;;;3.50;;
15271;SDS011;7737;51.578;7.268;2023-02-28T02:37:42;4.50;;;3.23;;
15271;SDS011;7737;51.578;7.268;2023-02-28T02:40:16;5.87;;;3.43;;
15271;SDS011;7737;51.578;7.268;2023-02-28T02:42:47;6.00;;;3.40;;
15271;SDS011;7737;51.578;7.268;2023-02-28T02:45:19;4.70;;;3.27;;
15271;SDS011;7737;51.578;7.268;2023-02-28T02:47:52;4.57;;;3.40;;
15271;SDS011;7737;51.578;7.268;2023-02-28T02:50:24;5.47;;;3.33;;
15271;SDS011;7737;51.578;7.268;2023-02-28T02:52:56;5.87;;;3.57;;
15271;SDS011;7737;51.578;7.268;2023-02-28T02:55:25;5.07;;;3.60;;
15271;SDS011;7737;51.578;7.268;2023-02-28T02:57:53;4.93;;;3.23;;
15271;SDS011;7737;51.578;7.268;2023-02-28T03:00:23;6.07;;;3.57;;
15271;SDS011;7737;51.578;7.268;2023-02-28T03:02:56;5.07;;;3.40;;
15271;SDS011;7737;51.578;7.268;2023-02-28T03:05:25;6.17;;;3.40;;
15271;SDS011;7737;51.578;7.268;2023-02-28T03:07:54;4.90;;;3.20;;
15271;SDS011;7737;51.578;7.268;2023-02-28T03:10:28;4.87;;;3.30;;
15271;SDS011;7737;51.578;7.268;2023-02-28T03:16:05;4.73;;;3.23;;
15271;SDS011;7737;51.578;7.268;2023-02-28T03:18:51;5.27;;;3.40;;
15271;SDS011;7737;51.578;7.268;2023-02-28T03:21:28;5.63;;;3.50;;
15271;SDS011;7737;51.578;7.268;2023-02-28T03:24:03;5.67;;;3.40;;
15271;SDS011;7737;51.578;7.268;2023-02-28T03:26:33;4.23;;;3.30;;
15271;SDS011;7737;51.578;7.268;2023-02-28T03:29:04;4.20;;;3.07;;
15271;SDS011;7737;51.578;7.268;2023-02-28T03:31:38;4.90;;;3.17;;
15271;SDS011;7737;51.578;7.268;2023-02-28T03:34:08;5.60;;;3.20;;
15271;SDS011;7737;51.578;7.268;2023-02-28T03:36:41;4.57;;;3.30;;
15271;SDS011;7737;51.578;7.268;2023-02-28T03:39:11;4.00;;;2.67;;
15271;SDS011;7737;51.578;7.268;2023-02-28T03:41:42;4.83;;;2.80;;
15271;SDS011;7737;51.578;7.268;2023-02-28T03:44:15;4.37;;;3.20;;
15271;SDS011;7737;51.578;7.268;2023-02-28T03:46:46;8.63;;;3.40;;
15271;SDS011;7737;51.578;7.268;2023-02-28T03:49:19;5.13;;;2.90;;
15271;SDS011;7737;51.578;7.268;2023-02-28T03:51:52;3.23;;;2.73;;
15271;SDS011;7737;51.578;7.268;2023-02-28T03:54:21;4.70;;;3.13;;
15271;SDS011;7737;51.578;7.268;2023-02-28T03:56:51;5.37;;;3.37;;
15271;SDS011;7737;51.578;7.268;2023-02-28T03:59:23;4.90;;;3.10;;
15271;SDS011;7737;51.578;7.268;2023-02-28T04:01:53;4.27;;;3.00;;
15271;SDS011;7737;51.578;7.268;2023-02-28T04:04:20;5.00;;;2.93;;
15271;SDS011;7737;51.578;7.268;2023-02-28T04:06:49;5.00;;;3.40;;
15271;SDS011;7737;51.578;7.268;2023-02-28T04:09:18;3.40;;;3.07;;
15271;SDS011;7737;51.578;7.268;2023-02-28T04:11:44;4.97;;;3.30;;
15271;SDS011;7737;51.578;7.268;2023-02-28T04:14:14;4.77;;;3.50;;
15271;SDS011;7737;51.578;7.268;2023-02-28T04:16:41;5.90;;;3.27;;
15271;SDS011;7737;51.578;7.268;2023-02-28T04:19:08;3.73;;;3.00;;
15271;SDS011;7737;51.578;7.268;2023-02-28T04:21:37;3.43;;;2.80;;
15271;SDS011;7737;51.578;7.268;2023-02-28T04:24:07;5.40;;;2.90;;
15271;SDS011;7737;51.578;7.268;2023-02-28T04:26:40;9.73;;;3.40;;
15271;SDS011;7737;51.578;7.268;2023-02-28T04:29:08;7.07;;;3.10;;
15271;SDS011;7737;51.578;7.268;2023-02-28T04:31:36;6.73;;;3.27;;
15271;SDS011;7737;51.578;7.268;2023-02-28T04:34:03;4.53;;;3.10;;
15271;SDS011;7737;51.578;7.268;2023-02-28T04:36:30;4.03;;;3.20;;
15271;SDS011;7737;51.578;7.268;2023-02-28T04:38:56;5.83;;;3.00;;
15271;SDS011;7737;51.578;7.268;2023-02-28T04:41:23;9.60;;;3.80;;
15271;SDS011;7737;51.578;7.268;2023-02-28T04:43:51;10.83;;;3.43;;
15271;SDS011;7737;51.578;7.268;2023-02-28T04:46:18;10.07;;;3.43;;
15271;SDS011;7737;51.578;7.268;2023-02-28T04:48:45;6.07;;;3.20;;
15271;SDS011;7737;51.578;7.268;2023-02-28T04:51:13;5.37;;;3.00;;
15271;SDS011;7737;51.578;7.268;2023-02-28T04:53:42;7.77;;;3.47;;
15271;SDS011;7737;51.578;7.268;2023-02-28T04:56:10;7.67;;;3.50;;
15271;SDS011;7737;51.578;7.268;2023-02-28T04:58:38;4.90;;;2.93;;
15271;SDS011;7737;51.578;7.268;2023-02-28T05:01:06;6.43;;;3.00;;
15271;SDS011;7737;51.578;7.268;2023-02-28T05:03:41;7.47;;;2.80;;
15271;SDS011;7737;51.578;7.268;2023-02-28T05:06:08;5.67;;;3.20;;
15271;SDS011;7737;51.578;7.268;2023-02-28T05:08:35;5.03;;;2.70;;
15271;SDS011;7737;51.578;7.268;2023-02-28T05:11:02;5.70;;;2.83;;
15271;SDS011;7737;51.578;7.268;2023-02-28T05:13:29;5.40;;;3.97;;
15271;SDS011;7737;51.578;7.268;2023-02-28T05:15:56;8.80;;;3.67;;
15271;SDS011;7737;51.578;7.268;2023-02-28T05:18:23;9.03;;;3.30;;
15271;SDS011;7737;51.578;7.268;2023-02-28T05:20:50;6.97;;;3.67;;
15271;SDS011;7737;51.578;7.268;2023-02-28T05:23:16;9.50;;;3.13;;
15271;SDS011;7737;51.578;7.268;2023-02-28T05:25:45;6.50;;;3.20;;
15271;SDS011;7737;51.578;7.268;2023-02-28T05:28:12;6.00;;;3.30;;
15271;SDS011;7737;51.578;7.268;2023-02-28T05:30:39;8.97;;;3.30;;
15271;SDS011;7737;51.578;7.268;2023-02-28T05:33:05;4.50;;;2.90;;
15271;SDS011;7737;51.578;7.268;2023-02-28T05:35:33;5.47;;;2.70;;
15271;SDS011;7737;51.578;7.268;2023-02-28T05:38:03;4.40;;;2.30;;
15271;SDS011;7737;51.578;7.268;2023-02-28T05:40:30;4.63;;;2.57;;
15271;SDS011;7737;51.578;7.268;2023-02-28T05:42:56;3.03;;;2.43;;
15271;SDS011;7737;51.578;7.268;2023-02-28T05:45:23;4.73;;;2.73;;
15271;SDS011;7737;51.578;7.268;2023-02-28T05:47:52;3.33;;;2.40;;
15271;SDS011;7737;51.578;7.268;2023-02-28T05:50:20;4.00;;;2.70;;
15271;SDS011;7737;51.578;7.268;2023-02-28T05:52:50;3.80;;;2.93;;
15271;SDS011;7737;51.578;7.268;2023-02-28T05:55:16;6.70;;;3.00;;
15271;SDS011;7737;51.578;7.268;2023-02-28T05:57:43;6.90;;;2.80;;
15271;SDS011;7737;51.578;7.268;2023-02-28T06:00:10;7.03;;;2.87;;
15271;SDS011;7737;51.578;7.268;2023-02-28T06:02:40;4.30;;;2.60;;
15271;SDS011;7737;51.578;7.268;2023-02-28T06:05:07;5.80;;;2.67;;
15271;SDS011;7737;51.578;7.268;2023-02-28T06:07:39;4.13;;;2.53;;
15271;SDS011;7737;51.578;7.268;2023-02-28T06:10:07;6.10;;;2.77;;
15271;SDS011;7737;51.578;7.268;2023-02-28T06:12:34;5.23;;;3.00;;
15271;SDS011;7737;51.578;7.268;2023-02-28T06:15:01;7.27;;;3.10;;
15271;SDS011;7737;51.578;7.268;2023-02-28T06:17:27;7.13;;;2.83;;
15271;SDS011;7737;51.578;7.268;2023-02-28T06:19:54;8.20;;;4.03;;
15271;SDS011;7737;51.578;7.268;2023-02-28T06:22:21;6.77;;;3.00;;
15271;SDS011;7737;51.578;7.268;2023-02-28T06:24:48;6.37;;;3.07;;
15271;SDS011;7737;51.578;7.268;2023-02-28T06:27:16;6.63;;;3.30;;
15271;SDS011;7737;51.578;7.268;2023-02-28T06:29:42;5.93;;;3.20;;
15271;SDS011;7737;51.578;7.268;2023-02-28T06:32:09;5.80;;;3.40;;
15271;SDS011;7737;51.578;7.268;2023-02-28T06:34:35;4.27;;;2.87;;
15271;SDS011;7737;51.578;7.268;2023-02-28T06:37:02;4.53;;;2.77;;
15271;SDS011;7737;51.578;7.268;2023-02-28T06:39:28;4.97;;;3.20;;
15271;SDS011;7737;51.578;7.268;2023-02-28T06:41:55;6.43;;;3.30;;
15271;SDS011;7737;51.578;7.268;2023-02-28T06:44:23;6.67;;;3.67;;
15271;SDS011;7737;51.578;7.268;2023-02-28T06:46:50;4.53;;;3.23;;
15271;SDS011;7737;51.578;7.268;2023-02-28T06:49:17;6.13;;;3.53;;
15271;SDS011;7737;51.578;7.268;2023-02-28T06:51:44;7.00;;;3.53;;
15271;SDS011;7737;51.578;7.268;2023-02-28T06:54:12;4.23;;;2.97;;
15271;SDS011;7737;51.578;7.268;2023-02-28T06:56:38;8.03;;;3.33;;
15271;SDS011;7737;51.578;7.268;2023-02-28T06:59:05;6.90;;;3.23;;
15271;SDS011;7737;51.578;7.268;2023-02-28T07:01:33;6.77;;;3.77;;
15271;SDS011;7737;51.578;7.268;2023-02-28T07:04:00;4.73;;;2.83;;
15271;SDS011;7737;51.578;7.268;2023-02-28T07:06:27;9.33;;;3.00;;
15271;SDS011;7737;51.578;7.268;2023-02-28T07:08:54;4.50;;;2.83;;
15271;SDS011;7737;51.578;7.268;2023-02-28T07:11:21;8.60;;;2.70;;
15271;SDS011;7737;51.578;7.268;2023-02-28T07:13:50;5.80;;;2.80;;
15271;SDS011;7737;51.578;7.268;2023-02-28T07:16:17;7.07;;;3.00;;
15271;SDS011;7737;51.578;7.268;2023-02-28T07:18:45;5.37;;;2.97;;
15271;SDS011;7737;51.578;7.268;2023-02-28T07:21:12;8.00;;;3.17;;
15271;SDS011;7737;51.578;7.268;2023-02-28T07:23:38;4.07;;;2.90;;
15271;SDS011;7737;51.578;7.268;2023-02-28T07:26:07;4.83;;;3.20;;
15271;SDS011;7737;51.578;7.268;2023-02-28T07:28:37;7.50;;;3.87;;
15271;SDS011;7737;51.578;7.268;2023-02-28T07:31:04;8.33;;;3.70;;
15271;SDS011;7737;51.578;7.268;2023-02-28T07:33:31;9.10;;;3.13;;
15271;SDS011;7737;51.578;7.268;2023-02-28T07:36:03;6.97;;;3.00;;
15271;SDS011;7737;51.578;7.268;2023-02-28T07:38:33;9.77;;;3.50;;
15271;SDS011;7737;51.578;7.268;2023-02-28T07:41:00;6.90;;;3.03;;
15271;SDS011;7737;51.578;7.268;2023-02-28T07:43:29;6.33;;;3.40;;
15271;SDS011;7737;51.578;7.268;2023-02-28T07:46:00;8.90;;;3.80;;
15271;SDS011;7737;51.578;7.268;2023-02-28T07:48:27;9.10;;;4.00;;
15271;SDS011;7737;51.578;7.268;2023-02-28T07:50:54;8.77;;;3.87;;
15271;SDS011;7737;51.578;7.268;2023-02-28T07:53:22;6.60;;;4.23;;
15271;SDS011;7737;51.578;7.268;2023-02-28T07:55:49;7.33;;;4.37;;
15271;SDS011;7737;51.578;7.268;2023-02-28T07:58:15;11.13;;;4.40;;
15271;SDS011;7737;51.578;7.268;2023-02-28T08:00:42;7.13;;;4.10;;
15271;SDS011;7737;51.578;7.268;2023-02-28T08:03:09;8.27;;;4.80;;
15271;SDS011;7737;51.578;7.268;2023-02-28T08:05:38;10.70;;;5.23;;
15271;SDS011;7737;51.578;7.268;2023-02-28T08:08:04;9.47;;;4.43;;
15271;SDS011;7737;51.578;7.268;2023-02-28T08:10:33;7.67;;;4.80;;
15271;SDS011;7737;51.578;7.268;2023-02-28T08:12:59;8.17;;;4.87;;
15271;SDS011;7737;51.578;7.268;2023-02-28T08:15:26;7.83;;;4.80;;
15271;SDS011;7737;51.578;7.268;2023-02-28T08:17:53;8.50;;;4.87;;
15271;SDS011;7737;51.578;7.268;2023-02-28T08:20:21;8.20;;;4.57;;
15271;SDS011;7737;51.578;7.268;2023-02-28T08:22:47;11.90;;;5.07;;
15271;SDS011;7737;51.578;7.268;2023-02-28T08:25:14;7.47;;;4.50;;
15271;SDS011;7737;51.578;7.268;2023-02-28T08:27:43;9.23;;;4.37;;
15271;SDS011;7737;51.578;7.268;2023-02-28T08:30:10;7.30;;;4.77;;
15271;SDS011;7737;51.578;7.268;2023-02-28T08:32:38;11.03;;;5.30;;
15271;SDS011;7737;51.578;7.268;2023-02-28T08:35:05;8.13;;;4.73;;
15271;SDS011;7737;51.578;7.268;2023-02-28T08:37:32;11.57;;;5.20;;
15271;SDS011;7737;51.578;7.268;2023-02-28T08:39:58;12.27;;;4.70;;
15271;SDS011;7737;51.578;7.268;2023-02-28T08:42:25;7.30;;;4.00;;
15271;SDS011;7737;51.578;7.268;2023-02-28T08:44:53;9.23;;;4.00;;
15271;SDS011;7737;51.578;7.268;2023-02-28T08:47:19;5.73;;;3.90;;
15271;SDS011;7737;51.578;7.268;2023-02-28T08:49:46;6.57;;;3.90;;
15271;SDS011;7737;51.578;7.268;2023-02-28T08:52:12;10.27;;;3.63;;
15271;SDS011;7737;51.578;7.268;2023-02-28T08:54:39;7.13;;;3.13;;
15271;SDS011;7737;51.578;7.268;2023-02-28T08:57:06;6.20;;;3.30;;
15271;SDS011;7737;51.578;7.268;2023-02-28T08:59:32;4.57;;;2.87;;
15271;SDS011;7737;51.578;7.268;2023-02-28T09:02:01;5.57;;;3.10;;
15271;SDS011;7737;51.578;7.268;2023-02-28T09:04:28;5.47;;;2.77;;
15271;SDS011;7737;51.578;7.268;2023-02-28T09:06:55;3.17;;;2.67;;
15271;SDS011;7737;51.578;7.268;2023-02-28T09:09:22;3.50;;;2.73;;
15271;SDS011;7737;51.578;7.268;2023-02-28T09:11:49;4.20;;;2.80;;
15271;SDS011;7737;51.578;7.268;2023-02-28T09:14:15;6.23;;;3.00;;
15271;SDS011;7737;51.578;7.268;2023-02-28T09:16:42;3.43;;;2.50;;
15271;SDS011;7737;51.578;7.268;2023-02-28T09:19:11;4.43;;;2.47;;
15271;SDS011;7737;51.578;7.268;2023-02-28T09:21:38;3.23;;;2.40;;
15271;SDS011;7737;51.578;7.268;2023-02-28T09:24:05;5.77;;;2.57;;
15271;SDS011;7737;51.578;7.268;2023-02-28T09:26:32;3.83;;;2.47;;
15271;SDS011;7737;51.578;7.268;2023-02-28T09:28:59;3.27;;;2.20;;
15271;SDS011;7737;51.578;7.268;2023-02-28T09:31:27;3.23;;;2.60;;
15271;SDS011;7737;51.578;7.268;2023-02-28T09:33:54;4.13;;;2.37;;
15271;SDS011;7737;51.578;7.268;2023-02-28T09:36:24;2.70;;;2.07;;
15271;SDS011;7737;51.578;7.268;2023-02-28T09:38:53;2.40;;;2.20;;
15271;SDS011;7737;51.578;7.268;2023-02-28T09:41:20;4.33;;;2.50;;
15271;SDS011;7737;51.578;7.268;2023-02-28T09:43:49;6.33;;;2.60;;
15271;SDS011;7737;51.578;7.268;2023-02-28T09:46:23;3.17;;;2.37;;
15271;SDS011;7737;51.578;7.268;2023-02-28T09:48:56;7.77;;;2.40;;
15271;SDS011;7737;51.578;7.268;2023-02-28T09:51:38;6.37;;;2.90;;
15271;SDS011;7737;51.578;7.268;2023-02-28T09:54:15;2.83;;;2.10;;
15271;SDS011;7737;51.578;7.268;2023-02-28T09:56:44;2.37;;;2.17;;
15271;SDS011;7737;51.578;7.268;2023-02-28T09:59:18;3.00;;;2.20;;
15271;SDS011;7737;51.578;7.268;2023-02-28T10:01:57;3.97;;;2.80;;
15271;SDS011;7737;51.578;7.268;2023-02-28T10:04:34;5.30;;;2.20;;
15271;SDS011;7737;51.578;7.268;2023-02-28T10:07:12;3.17;;;2.20;;
15271;SDS011;7737;51.578;7.268;2023-02-28T10:09:46;3.63;;;2.10;;
15271;SDS011;7737;51.578;7.268;2023-02-28T10:12:18;2.77;;;2.00;;
15271;SDS011;7737;51.578;7.268;2023-02-28T10:14:46;2.70;;;1.70;;
15271;SDS011;7737;51.578;7.268;2023-02-28T10:17:16;3.10;;;1.60;;
15271;SDS011;7737;51.578;7.268;2023-02-28T10:19:50;3.50;;;1.87;;
15271;SDS011;7737;51.578;7.268;2023-02-28T10:22:27;4.80;;;1.97;;
15271;SDS011;7737;51.578;7.268;2023-02-28T10:24:59;4.33;;;1.80;;
15271;SDS011;7737;51.578;7.268;2023-02-28T10:27:43;3.30;;;1.60;;
15271;SDS011;7737;51.578;7.268;2023-02-28T10:30:11;3.87;;;1.60;;
15271;SDS011;7737;51.578;7.268;2023-02-28T10:32:39;2.90;;;1.30;;
15271;SDS011;7737;51.578;7.268;2023-02-28T10:35:10;2.43;;;1.63;;
15271;SDS011;7737;51.578;7.268;2023-02-28T10:37:44;4.77;;;1.80;;
15271;SDS011;7737;51.578;7.268;2023-02-28T10:40:25;2.23;;;1.50;;
15271;SDS011;7737;51.578;7.268;2023-02-28T10:42:55;2.77;;;1.20;;
15271;SDS011;7737;51.578;7.268;2023-02-28T10:45:24;3.30;;;1.43;;
15271;SDS011;7737;51.578;7.268;2023-02-28T10:47:53;1.33;;;1.17;;
15271;SDS011;7737;51.578;7.268;2023-02-28T10:50:26;3.87;;;1.60;;
15271;SDS011;7737;51.578;7.268;2023-02-28T10:52:56;3.13;;;1.23;;
15271;SDS011;7737;51.578;7.268;2023-02-28T10:55:34;2.13;;;1.43;;
15271;SDS011;7737;51.578;7.268;2023-02-28T10:58:01;3.67;;;1.33;;
15271;SDS011;7737;51.578;7.268;2023-02-28T11:00:31;3.60;;;1.37;;
15271;SDS011;7737;51.578;7.268;2023-02-28T11:03:00;2.87;;;1.40;;
15271;SDS011;7737;51.578;7.268;2023-02-28T11:05:28;2.60;;;1.57;;
15271;SDS011;7737;51.578;7.268;2023-02-28T11:07:59;4.83;;;1.57;;
15271;SDS011;7737;51.578;7.268;2023-02-28T11:10:31;6.67;;;1.93;;
15271;SDS011;7737;51.578;7.268;2023-02-28T11:12:59;1.27;;;1.07;;
15271;SDS011;7737;51.578;7.268;2023-02-28T11:15:28;2.73;;;1.30;;
15271;SDS011;7737;51.578;7.268;2023-02-28T11:17:57;3.23;;;1.20;;
15271;SDS011;7737;51.578;7.268;2023-02-28T11:20:26;1.83;;;1.30;;
15271;SDS011;7737;51.578;7.268;2023-02-28T11:22:58;2.60;;;1.43;;
15271;SDS011;7737;51.578;7.268;2023-02-28T11:25:26;3.10;;;1.50;;
15271;SDS011;7737;51.578;7.268;2023-02-28T11:27:56;1.33;;;1.20;;
15271;SDS011;7737;51.578;7.268;2023-02-28T11:30:28;2.33;;;1.47;;
15271;SDS011;7737;51.578;7.268;2023-02-28T11:33:00;2.00;;;1.40;;
15271;SDS011;7737;51.578;7.268;2023-02-28T11:35:28;2.50;;;1.50;;
15271;SDS011;7737;51.578;7.268;2023-02-28T11:37:58;1.60;;;1.40;;
15271;SDS011;7737;51.578;7.268;2023-02-28T11:40:28;2.20;;;1.53;;
15271;SDS011;7737;51.578;7.268;2023-02-28T11:43:02;2.53;;;1.77;;
15271;SDS011;7737;51.578;7.268;2023-02-28T11:45:53;2.97;;;1.60;;
15271;SDS011;7737;51.578;7.268;2023-02-28T11:48:32;4.53;;;1.70;;
15271;SDS011;7737;51.578;7.268;2023-02-28T11:51:08;2.27;;;1.50;;
15271;SDS011;7737;51.578;7.268;2023-02-28T11:53:51;1.63;;;1.50;;
15271;SDS011;7737;51.578;7.268;2023-02-28T11:56:41;4.23;;;1.50;;
15271;SDS011;7737;51.578;7.268;2023-02-28T11:59:15;3.10;;;1.70;;
15271;SDS011;7737;51.578;7.268;2023-02-28T12:02:02;2.70;;;1.50;;
15271;SDS011;7737;51.578;7.268;2023-02-28T12:04:45;3.87;;;1.50;;
15271;SDS011;7737;51.578;7.268;2023-02-28T12:07:23;4.03;;;1.93;;
15271;SDS011;7737;51.578;7.268;2023-02-28T12:10:01;2.80;;;1.70;;
15271;SDS011;7737;51.578;7.268;2023-02-28T12:12:42;2.13;;;1.70;;
15271;SDS011;7737;51.578;7.268;2023-02-28T12:15:22;2.97;;;1.87;;
15271;SDS011;7737;51.578;7.268;2023-02-28T12:20:45;2.30;;;1.90;;
15271;SDS011;7737;51.578;7.268;2023-02-28T12:23:22;2.93;;;2.00;;
15271;SDS011;7737;51.578;7.268;2023-02-28T12:26:06;3.60;;;2.00;;
15271;SDS011;7737;51.578;7.268;2023-02-28T12:28:41;4.47;;;2.10;;
15271;SDS011;7737;51.578;7.268;2023-02-28T12:31:14;3.00;;;2.10;;
15271;SDS011;7737;51.578;7.268;2023-02-28T12:33:45;4.27;;;1.73;;
15271;SDS011;7737;51.578;7.268;2023-02-28T12:36:14;2.30;;;1.83;;
15271;SDS011;7737;51.578;7.268;2023-02-28T12:38:47;3.03;;;1.80;;
15271;SDS011;7737;51.578;7.268;2023-02-28T12:41:19;3.47;;;2.00;;
15271;SDS011;7737;51.578;7.268;2023-02-28T12:43:52;2.00;;;1.80;;
15271;SDS011;7737;51.578;7.268;2023-02-28T12:46:25;2.43;;;2.00;;
15271;SDS011;7737;51.578;7.268;2023-02-28T12:48:56;4.07;;;2.00;;
15271;SDS011;7737;51.578;7.268;2023-02-28T12:51:25;3.90;;;1.97;;
15271;SDS011;7737;51.578;7.268;2023-02-28T12:53:54;2.57;;;2.10;;
15271;SDS011;7737;51.578;7.268;2023-02-28T12:56:33;2.50;;;1.83;;
15271;SDS011;7737;51.578;7.268;2023-02-28T12:59:11;3.40;;;1.83;;
15271;SDS011;7737;51.578;7.268;2023-02-28T13:01:45;2.03;;;1.80;;
15271;SDS011;7737;51.578;7.268;2023-02-28T13:04:27;3.90;;;2.03;;
15271;SDS011;7737;51.578;7.268;2023-02-28T13:07:19;1.77;;;1.40;;
15271;SDS011;7737;51.578;7.268;2023-02-28T13:10:05;1.90;;;1.67;;
15271;SDS011;7737;51.578;7.268;2023-02-28T13:12:34;2.00;;;1.60;;
15271;SDS011;7737;51.578;7.268;2023-02-28T13:15:04;4.23;;;1.67;;
15271;SDS011;7737;51.578;7.268;2023-02-28T13:17:38;3.43;;;1.77;;
15271;SDS011;7737;51.578;7.268;2023-02-28T13:20:14;2.03;;;1.50;;
15271;SDS011;7737;51.578;7.268;2023-02-28T13:22:42;2.33;;;1.80;;
15271;SDS011;7737;51.578;7.268;2023-02-28T13:31:19;3.83;;;2.17;;
15271;SDS011;7737;51.578;7.268;2023-02-28T13:34:05;4.53;;;2.40;;
15271;SDS011;7737;51.578;7.268;2023-02-28T13:36:39;2.97;;;1.80;;
15271;SDS011;7737;51.578;7.268;2023-02-28T13:47:54;3.97;;;2.07;;
15271;SDS011;7737;51.578;7.268;2023-02-28T13:50:27;3.07;;;2.13;;
15271;SDS011;7737;51.578;7.268;2023-02-28T13:56:01;2.53;;;2.07;;
15271;SDS011;7737;51.578;7.268;2023-02-28T13:58:43;3.87;;;2.30;;
15271;SDS011;7737;51.578;7.268;2023-02-28T14:04:43;2.80;;;1.80;;
15271;SDS011;7737;51.578;7.268;2023-02-28T14:07:19;3.47;;;1.90;;
15271;SDS011;7737;51.578;7.268;2023-02-28T14:09:52;3.85;;;2.28;;
15271;SDS011;7737;51.578;7.268;2023-02-28T14:15:34;2.90;;;2.13;;
15271;SDS011;7737;51.578;7.268;2023-02-28T14:18:10;2.20;;;2.00;;
15271;SDS011;7737;51.578;7.268;2023-02-28T14:20:45;3.60;;;2.57;;
15271;SDS011;7737;51.578;7.268;2023-02-28T14:23:15;2.80;;;2.23;;
15271;SDS011;7737;51.578;7.268;2023-02-28T14:25:52;2.53;;;2.10;;
15271;SDS011;7737;51.578;7.268;2023-02-28T14:28:34;3.73;;;2.27;;
15271;SDS011;7737;51.578;7.268;2023-02-28T14:31:12;3.87;;;2.70;;
15271;SDS011;7737;51.578;7.268;2023-02-28T14:33:43;3.40;;;2.30;;
15271;SDS011;7737;51.578;7.268;2023-02-28T14:36:26;3.60;;;2.30;;
15271;SDS011;7737;51.578;7.268;2023-02-28T14:38:57;4.13;;;2.30;;
15271;SDS011;7737;51.578;7.268;2023-02-28T14:41:29;5.53;;;2.50;;
15271;SDS011;7737;51.578;7.268;2023-02-28T14:44:00;5.30;;;2.50;;
15271;SDS011;7737;51.578;7.268;2023-02-28T14:46:29;2.27;;;2.07;;
15271;SDS011;7737;51.578;7.268;2023-02-28T14:49:01;4.00;;;2.07;;
15271;SDS011;7737;51.578;7.268;2023-02-28T14:51:31;2.83;;;2.03;;
15271;SDS011;7737;51.578;7.268;2023-02-28T14:53:59;2.60;;;1.90;;
15271;SDS011;7737;51.578;7.268;2023-02-28T14:56:29;5.07;;;2.07;;
15271;SDS011;7737;51.578;7.268;2023-02-28T14:59:05;2.87;;;2.00;;
15271;SDS011;7737;51.578;7.268;2023-02-28T15:01:48;2.20;;;2.00;;
15271;SDS011;7737;51.578;7.268;2023-02-28T15:04:18;3.93;;;2.10;;
15271;SDS011;7737;51.578;7.268;2023-02-28T15:09:37;4.57;;;2.03;;
15271;SDS011;7737;51.578;7.268;2023-02-28T15:12:03;3.60;;;2.27;;
15271;SDS011;7737;51.578;7.268;2023-02-28T15:14:30;3.53;;;2.17;;
15271;SDS011;7737;51.578;7.268;2023-02-28T15:16:59;3.53;;;2.27;;
15271;SDS011;7737;51.578;7.268;2023-02-28T15:19:32;5.10;;;2.10;;
15271;SDS011;7737;51.578;7.268;2023-02-28T15:22:01;2.87;;;2.20;;
15271;SDS011;7737;51.578;7.268;2023-02-28T15:24:34;2.53;;;2.03;;
15271;SDS011;7737;51.578;7.268;2023-02-28T15:27:04;4.93;;;2.23;;
15271;SDS011;7737;51.578;7.268;2023-02-28T15:29:34;3.42;;;2.22;;
15271;SDS011;7737;51.578;7.268;2023-02-28T15:32:21;3.37;;;2.17;;
15271;SDS011;7737;51.578;7.268;2023-02-28T15:34:51;2.93;;;2.20;;
15271;SDS011;7737;51.578;7.268;2023-02-28T15:37:26;3.40;;;2.10;;
15271;SDS011;7737;51.578;7.268;2023-02-28T15:39:57;3.17;;;2.13;;
15271;SDS011;7737;51.578;7.268;2023-02-28T15:42:31;4.47;;;2.40;;
15271;SDS011;7737;51.578;7.268;2023-02-28T15:44:57;4.70;;;2.50;;
15271;SDS011;7737;51.578;7.268;2023-02-28T15:47:25;2.87;;;2.50;;
15271;SDS011;7737;51.578;7.268;2023-02-28T15:49:54;5.00;;;2.23;;
15271;SDS011;7737;51.578;7.268;2023-02-28T15:52:25;4.27;;;2.70;;
15271;SDS011;7737;51.578;7.268;2023-02-28T15:54:58;2.73;;;2.17;;
15271;SDS011;7737;51.578;7.268;2023-02-28T15:57:25;3.50;;;2.00;;